sensor_id;sensor_type;location;lat;lon;timestamp;temperature;humidity
41664;DHT22;27353;50.906;7.248;2022-12-18T00:02:15;-4.30;99.90
41664;DHT22;27353;50.906;7.248;2022-12-18T00:04:40;-4.30;99.90
41664;DHT22;27353;50.906;7.248;2022-12-18T00:07:06;-4.30;99.90
41664;DHT22;27353;50.906;7.248;2022-12-18T00:09:32;-4.30;99.90
41664;DHT22;27353;50.906;7.248;2022-12-18T00:11:57;-4.30;99.90
41664;DHT22;27353;50.906;7.248;2022-12-18T00:14:23;-4.30;99.90
41664;DHT22;27353;50.906;7.248;2022-12-18T00:16:49;-4.30;99.90
41664;DHT22;27353;50.906;7.248;2022-12-18T00:19:15;-4.30;99.90
41664;DHT22;27353;50.906;7.248;2022-12-18T00:21:42;-4.30;99.90
41664;DHT22;27353;50.906;7.248;2022-12-18T00:24:08;-4.20;99.90
41664;DHT22;27353;50.906;7.248;2022-12-18T00:26:35;-4.10;99.90
41664;DHT22;27353;50.906;7.248;2022-12-18T00:29:10;-4.20;99.90
41664;DHT22;27353;50.906;7.248;2022-12-18T00:31:37;-4.20;99.90
41664;DHT22;27353;50.906;7.248;2022-12-18T00:34:03;-4.20;99.90
41664;DHT22;27353;50.906;7.248;2022-12-18T00:36:32;-4.10;99.90
41664;DHT22;27353;50.906;7.248;2022-12-18T00:38:59;-4.10;99.90
41664;DHT22;27353;50.906;7.248;2022-12-18T00:41:26;-4.10;99.90
41664;DHT22;27353;50.906;7.248;2022-12-18T00:44:12;-4.10;99.90
41664;DHT22;27353;50.906;7.248;2022-12-18T00:46:39;-4.10;99.90
41664;DHT22;27353;50.906;7.248;2022-12-18T00:49:05;-4.00;99.90
41664;DHT22;27353;50.906;7.248;2022-12-18T00:51:30;-4.00;99.90
41664;DHT22;27353;50.906;7.248;2022-12-18T00:53:56;-4.10;99.90
41664;DHT22;27353;50.906;7.248;2022-12-18T00:56:22;-4.10;99.90
41664;DHT22;27353;50.906;7.248;2022-12-18T00:58:48;-4.10;99.90
41664;DHT22;27353;50.906;7.248;2022-12-18T01:01:14;-4.10;99.90
41664;DHT22;27353;50.906;7.248;2022-12-18T01:03:39;-4.10;99.90
41664;DHT22;27353;50.906;7.248;2022-12-18T01:06:09;-4.10;99.90
41664;DHT22;27353;50.906;7.248;2022-12-18T01:08:36;-4.20;99.90
41664;DHT22;27353;50.906;7.248;2022-12-18T01:11:11;-4.20;99.90
41664;DHT22;27353;50.906;7.248;2022-12-18T01:13:37;-4.20;99.90
41664;DHT22;27353;50.906;7.248;2022-12-18T01:16:03;-4.20;99.90
41664;DHT22;27353;50.906;7.248;2022-12-18T01:18:29;-4.20;99.90
41664;DHT22;27353;50.906;7.248;2022-12-18T01:20:54;-4.20;99.90
41664;DHT22;27353;50.906;7.248;2022-12-18T01:23:20;-4.30;99.90
41664;DHT22;27353;50.906;7.248;2022-12-18T01:25:46;-4.40;99.90
41664;DHT22;27353;50.906;7.248;2022-12-18T01:28:11;-4.40;99.90
41664;DHT22;27353;50.906;7.248;2022-12-18T01:30:37;-4.40;99.90
41664;DHT22;27353;50.906;7.248;2022-12-18T01:33:04;-4.50;99.90
41664;DHT22;27353;50.906;7.248;2022-12-18T01:35:30;-4.50;99.90
41664;DHT22;27353;50.906;7.248;2022-12-18T01:37:56;-4.50;99.90
41664;DHT22;27353;50.906;7.248;2022-12-18T01:40:22;-4.40;99.90
41664;DHT22;27353;50.906;7.248;2022-12-18T01:42:52;-4.50;99.90
41664;DHT22;27353;50.906;7.248;2022-12-18T01:50:16;-4.30;99.90
41664;DHT22;27353;50.906;7.248;2022-12-18T01:52:50;-4.30;99.90
41664;DHT22;27353;50.906;7.248;2022-12-18T01:55:19;-4.30;99.90
41664;DHT22;27353;50.906;7.248;2022-12-18T01:57:46;-4.30;99.90
41664;DHT22;27353;50.906;7.248;2022-12-18T02:00:17;-4.20;99.90
41664;DHT22;27353;50.906;7.248;2022-12-18T02:02:44;-4.10;99.90
41664;DHT22;27353;50.906;7.248;2022-12-18T02:05:11;-4.10;99.90
41664;DHT22;27353;50.906;7.248;2022-12-18T02:07:56;-4.10;99.90
41664;DHT22;27353;50.906;7.248;2022-12-18T02:10:31;-4.20;99.90
41664;DHT22;27353;50.906;7.248;2022-12-18T02:18:38;-4.20;99.90
41664;DHT22;27353;50.906;7.248;2022-12-18T02:21:13;-4.10;99.90
41664;DHT22;27353;50.906;7.248;2022-12-18T02:26:50;-4.10;99.90
41664;DHT22;27353;50.906;7.248;2022-12-18T02:29:46;-4.10;99.90
41664;DHT22;27353;50.906;7.248;2022-12-18T02:32:18;-4.10;99.90
41664;DHT22;27353;50.906;7.248;2022-12-18T02:34:46;-4.20;99.90
41664;DHT22;27353;50.906;7.248;2022-12-18T02:37:15;-4.20;99.90
41664;DHT22;27353;50.906;7.248;2022-12-18T02:39:43;-4.20;99.90
41664;DHT22;27353;50.906;7.248;2022-12-18T02:42:10;-4.30;99.90
41664;DHT22;27353;50.906;7.248;2022-12-18T02:44:48;-4.30;99.90
41664;DHT22;27353;50.906;7.248;2022-12-18T02:47:17;-4.40;99.90
41664;DHT22;27353;50.906;7.248;2022-12-18T02:52:23;-4.50;99.90
41664;DHT22;27353;50.906;7.248;2022-12-18T02:55:13;-4.50;99.90
41664;DHT22;27353;50.906;7.248;2022-12-18T03:00:23;-4.50;99.90
41664;DHT22;27353;50.906;7.248;2022-12-18T03:03:11;-4.50;99.90
41664;DHT22;27353;50.906;7.248;2022-12-18T03:05:43;-4.60;99.90
41664;DHT22;27353;50.906;7.248;2022-12-18T03:08:23;-4.60;99.90
41664;DHT22;27353;50.906;7.248;2022-12-18T03:11:10;-4.50;99.90
41664;DHT22;27353;50.906;7.248;2022-12-18T03:13:49;-4.50;99.90
41664;DHT22;27353;50.906;7.248;2022-12-18T03:16:22;-4.50;99.90
41664;DHT22;27353;50.906;7.248;2022-12-18T03:18:52;-4.50;99.90
41664;DHT22;27353;50.906;7.248;2022-12-18T03:21:28;-4.50;99.90
41664;DHT22;27353;50.906;7.248;2022-12-18T03:23:55;-4.50;99.90
41664;DHT22;27353;50.906;7.248;2022-12-18T03:26:24;-4.40;99.90
41664;DHT22;27353;50.906;7.248;2022-12-18T03:28:53;-4.40;99.90
41664;DHT22;27353;50.906;7.248;2022-12-18T03:31:23;-4.40;99.90
41664;DHT22;27353;50.906;7.248;2022-12-18T03:33:54;-4.30;99.90
41664;DHT22;27353;50.906;7.248;2022-12-18T03:36:20;-4.30;99.90
41664;DHT22;27353;50.906;7.248;2022-12-18T03:38:46;-4.30;99.90
41664;DHT22;27353;50.906;7.248;2022-12-18T03:41:38;-4.30;99.90
41664;DHT22;27353;50.906;7.248;2022-12-18T03:49:39;-4.30;99.90
41664;DHT22;27353;50.906;7.248;2022-12-18T03:52:12;-4.30;99.90
41664;DHT22;27353;50.906;7.248;2022-12-18T03:54:41;-4.30;99.90
41664;DHT22;27353;50.906;7.248;2022-12-18T03:57:18;-4.40;99.90
41664;DHT22;27353;50.906;7.248;2022-12-18T03:59:45;-4.40;99.90
41664;DHT22;27353;50.906;7.248;2022-12-18T04:02:14;-4.50;99.90
41664;DHT22;27353;50.906;7.248;2022-12-18T04:04:41;-4.40;99.90
41664;DHT22;27353;50.906;7.248;2022-12-18T04:07:07;-4.40;99.90
41664;DHT22;27353;50.906;7.248;2022-12-18T04:09:34;-4.40;99.90
41664;DHT22;27353;50.906;7.248;2022-12-18T04:12:01;-4.40;99.90
41664;DHT22;27353;50.906;7.248;2022-12-18T04:14:26;-4.40;99.90
41664;DHT22;27353;50.906;7.248;2022-12-18T04:16:52;-4.40;99.90
41664;DHT22;27353;50.906;7.248;2022-12-18T04:19:17;-4.50;99.90
41664;DHT22;27353;50.906;7.248;2022-12-18T04:21:43;-4.40;99.90
41664;DHT22;27353;50.906;7.248;2022-12-18T04:24:09;-4.50;99.90
41664;DHT22;27353;50.906;7.248;2022-12-18T04:26:34;-4.40;99.90
41664;DHT22;27353;50.906;7.248;2022-12-18T04:29:00;-4.40;99.90
41664;DHT22;27353;50.906;7.248;2022-12-18T04:31:26;-4.40;99.90
41664;DHT22;27353;50.906;7.248;2022-12-18T04:33:52;-4.30;99.90
41664;DHT22;27353;50.906;7.248;2022-12-18T04:36:18;-4.30;99.90
41664;DHT22;27353;50.906;7.248;2022-12-18T04:38:43;-4.30;99.90
41664;DHT22;27353;50.906;7.248;2022-12-18T04:41:09;-4.30;99.90
41664;DHT22;27353;50.906;7.248;2022-12-18T04:43:34;-4.30;99.90
41664;DHT22;27353;50.906;7.248;2022-12-18T04:46:04;-4.40;99.90
41664;DHT22;27353;50.906;7.248;2022-12-18T04:48:30;-4.40;99.90
41664;DHT22;27353;50.906;7.248;2022-12-18T04:50:56;-4.40;99.90
41664;DHT22;27353;50.906;7.248;2022-12-18T04:53:21;-4.40;99.90
41664;DHT22;27353;50.906;7.248;2022-12-18T04:55:47;-4.40;99.90
41664;DHT22;27353;50.906;7.248;2022-12-18T04:58:13;-4.40;99.90
41664;DHT22;27353;50.906;7.248;2022-12-18T05:00:38;-4.40;99.90
41664;DHT22;27353;50.906;7.248;2022-12-18T05:03:04;-4.40;99.90
41664;DHT22;27353;50.906;7.248;2022-12-18T05:05:30;-4.40;99.90
41664;DHT22;27353;50.906;7.248;2022-12-18T05:07:55;-4.40;99.90
41664;DHT22;27353;50.906;7.248;2022-12-18T05:10:21;-4.40;99.90
41664;DHT22;27353;50.906;7.248;2022-12-18T05:12:47;-4.50;99.90
41664;DHT22;27353;50.906;7.248;2022-12-18T05:15:32;-4.50;99.90
41664;DHT22;27353;50.906;7.248;2022-12-18T05:17:58;-4.50;99.90
41664;DHT22;27353;50.906;7.248;2022-12-18T05:20:25;-4.50;99.90
41664;DHT22;27353;50.906;7.248;2022-12-18T05:22:51;-4.50;99.90
41664;DHT22;27353;50.906;7.248;2022-12-18T05:25:17;-4.40;99.90
41664;DHT22;27353;50.906;7.248;2022-12-18T05:27:43;-4.40;99.90
41664;DHT22;27353;50.906;7.248;2022-12-18T05:30:09;-4.40;99.90
41664;DHT22;27353;50.906;7.248;2022-12-18T05:32:35;-4.40;99.90
41664;DHT22;27353;50.906;7.248;2022-12-18T05:35:00;-4.40;99.90
41664;DHT22;27353;50.906;7.248;2022-12-18T05:37:26;-4.50;99.90
41664;DHT22;27353;50.906;7.248;2022-12-18T05:39:52;-4.50;99.90
41664;DHT22;27353;50.906;7.248;2022-12-18T05:42:17;-4.40;99.90
41664;DHT22;27353;50.906;7.248;2022-12-18T05:44:43;-4.40;99.90
41664;DHT22;27353;50.906;7.248;2022-12-18T05:47:09;-4.40;99.90
41664;DHT22;27353;50.906;7.248;2022-12-18T05:49:34;-4.50;99.90
41664;DHT22;27353;50.906;7.248;2022-12-18T05:52:00;-4.60;99.90
41664;DHT22;27353;50.906;7.248;2022-12-18T05:54:29;-4.60;99.90
41664;DHT22;27353;50.906;7.248;2022-12-18T05:56:54;-4.50;99.90
41664;DHT22;27353;50.906;7.248;2022-12-18T05:59:20;-4.60;99.90
41664;DHT22;27353;50.906;7.248;2022-12-18T06:01:46;-4.50;99.90
41664;DHT22;27353;50.906;7.248;2022-12-18T06:04:12;-4.50;99.90
41664;DHT22;27353;50.906;7.248;2022-12-18T06:06:37;-4.50;99.90
41664;DHT22;27353;50.906;7.248;2022-12-18T06:09:03;-4.50;99.90
41664;DHT22;27353;50.906;7.248;2022-12-18T06:11:34;-4.60;99.90
41664;DHT22;27353;50.906;7.248;2022-12-18T06:14:00;-4.60;99.90
41664;DHT22;27353;50.906;7.248;2022-12-18T06:16:27;-4.60;99.90
41664;DHT22;27353;50.906;7.248;2022-12-18T06:18:53;-4.60;99.90
41664;DHT22;27353;50.906;7.248;2022-12-18T06:21:18;-4.50;99.90
41664;DHT22;27353;50.906;7.248;2022-12-18T06:23:45;-4.50;99.90
41664;DHT22;27353;50.906;7.248;2022-12-18T06:26:12;-4.50;99.90
41664;DHT22;27353;50.906;7.248;2022-12-18T06:28:37;-4.50;99.90
41664;DHT22;27353;50.906;7.248;2022-12-18T06:31:04;-4.40;99.90
41664;DHT22;27353;50.906;7.248;2022-12-18T06:33:29;-4.40;99.90
41664;DHT22;27353;50.906;7.248;2022-12-18T06:36:10;-4.40;99.90
41664;DHT22;27353;50.906;7.248;2022-12-18T06:38:38;-4.40;99.90
41664;DHT22;27353;50.906;7.248;2022-12-18T06:41:17;-4.40;99.90
41664;DHT22;27353;50.906;7.248;2022-12-18T06:43:44;-4.40;99.90
41664;DHT22;27353;50.906;7.248;2022-12-18T06:46:10;-4.40;99.90
41664;DHT22;27353;50.906;7.248;2022-12-18T06:48:36;-4.40;99.90
41664;DHT22;27353;50.906;7.248;2022-12-18T06:51:02;-4.40;99.90
41664;DHT22;27353;50.906;7.248;2022-12-18T06:53:28;-4.50;99.90
41664;DHT22;27353;50.906;7.248;2022-12-18T06:56:06;-4.50;99.90
41664;DHT22;27353;50.906;7.248;2022-12-18T06:58:32;-4.50;99.90
41664;DHT22;27353;50.906;7.248;2022-12-18T07:01:03;-4.40;99.90
41664;DHT22;27353;50.906;7.248;2022-12-18T07:03:29;-4.50;99.90
41664;DHT22;27353;50.906;7.248;2022-12-18T07:05:55;-4.40;99.90
41664;DHT22;27353;50.906;7.248;2022-12-18T07:08:21;-4.30;99.90
41664;DHT22;27353;50.906;7.248;2022-12-18T07:10:47;-4.30;99.90
41664;DHT22;27353;50.906;7.248;2022-12-18T07:13:15;-4.30;99.90
41664;DHT22;27353;50.906;7.248;2022-12-18T07:15:40;-4.30;99.90
41664;DHT22;27353;50.906;7.248;2022-12-18T07:18:06;-4.30;99.90
41664;DHT22;27353;50.906;7.248;2022-12-18T07:20:31;-4.20;99.90
41664;DHT22;27353;50.906;7.248;2022-12-18T07:22:57;-4.30;99.90
41664;DHT22;27353;50.906;7.248;2022-12-18T07:25:23;-4.30;99.90
41664;DHT22;27353;50.906;7.248;2022-12-18T07:27:48;-4.30;99.90
41664;DHT22;27353;50.906;7.248;2022-12-18T07:30:14;-4.20;99.90
41664;DHT22;27353;50.906;7.248;2022-12-18T07:32:39;-4.30;99.90
41664;DHT22;27353;50.906;7.248;2022-12-18T07:35:05;-4.30;99.90
41664;DHT22;27353;50.906;7.248;2022-12-18T07:37:31;-4.30;99.90
41664;DHT22;27353;50.906;7.248;2022-12-18T07:39:56;-4.30;99.90
41664;DHT22;27353;50.906;7.248;2022-12-18T07:42:22;-4.20;99.90
41664;DHT22;27353;50.906;7.248;2022-12-18T07:44:58;-4.20;99.90
41664;DHT22;27353;50.906;7.248;2022-12-18T07:47:23;-4.20;99.90
41664;DHT22;27353;50.906;7.248;2022-12-18T07:49:49;-4.10;99.90
41664;DHT22;27353;50.906;7.248;2022-12-18T07:52:15;-4.10;99.90
41664;DHT22;27353;50.906;7.248;2022-12-18T07:54:40;-4.10;99.90
41664;DHT22;27353;50.906;7.248;2022-12-18T07:57:07;-4.00;99.90
41664;DHT22;27353;50.906;7.248;2022-12-18T07:59:32;-4.00;99.90
41664;DHT22;27353;50.906;7.248;2022-12-18T08:01:58;-4.00;99.90
41664;DHT22;27353;50.906;7.248;2022-12-18T08:04:24;-4.00;99.90
41664;DHT22;27353;50.906;7.248;2022-12-18T08:06:50;-3.90;99.90
41664;DHT22;27353;50.906;7.248;2022-12-18T08:09:16;-3.70;99.90
41664;DHT22;27353;50.906;7.248;2022-12-18T08:11:42;-3.00;99.90
41664;DHT22;27353;50.906;7.248;2022-12-18T08:14:08;-2.00;99.90
41664;DHT22;27353;50.906;7.248;2022-12-18T08:16:33;-1.00;99.90
41664;DHT22;27353;50.906;7.248;2022-12-18T08:18:59;-0.40;99.90
41664;DHT22;27353;50.906;7.248;2022-12-18T08:21:27;0.40;99.90
41664;DHT22;27353;50.906;7.248;2022-12-18T08:23:55;0.50;99.90
41664;DHT22;27353;50.906;7.248;2022-12-18T08:26:21;0.30;99.90
41664;DHT22;27353;50.906;7.248;2022-12-18T08:28:47;0.20;99.90
41664;DHT22;27353;50.906;7.248;2022-12-18T08:31:13;-0.10;99.90
41664;DHT22;27353;50.906;7.248;2022-12-18T08:33:40;-0.50;99.90
41664;DHT22;27353;50.906;7.248;2022-12-18T08:36:06;-0.80;99.90
41664;DHT22;27353;50.906;7.248;2022-12-18T08:38:33;-1.10;99.90
41664;DHT22;27353;50.906;7.248;2022-12-18T08:41:06;-1.20;99.90
41664;DHT22;27353;50.906;7.248;2022-12-18T08:43:32;-1.30;99.90
41664;DHT22;27353;50.906;7.248;2022-12-18T08:46:18;-1.50;99.90
41664;DHT22;27353;50.906;7.248;2022-12-18T08:48:44;-1.70;99.90
41664;DHT22;27353;50.906;7.248;2022-12-18T08:51:10;-1.60;99.90
41664;DHT22;27353;50.906;7.248;2022-12-18T08:53:36;-1.60;99.90
41664;DHT22;27353;50.906;7.248;2022-12-18T08:56:03;-1.70;99.90
41664;DHT22;27353;50.906;7.248;2022-12-18T08:58:29;-1.70;99.90
41664;DHT22;27353;50.906;7.248;2022-12-18T09:01:03;-1.70;99.90
41664;DHT22;27353;50.906;7.248;2022-12-18T09:03:28;-1.60;99.90
41664;DHT22;27353;50.906;7.248;2022-12-18T09:05:55;-1.50;99.90
41664;DHT22;27353;50.906;7.248;2022-12-18T09:08:21;-1.50;99.90
41664;DHT22;27353;50.906;7.248;2022-12-18T09:10:48;-1.40;99.90
41664;DHT22;27353;50.906;7.248;2022-12-18T09:13:15;-1.40;99.90
41664;DHT22;27353;50.906;7.248;2022-12-18T09:15:42;-1.20;99.90
41664;DHT22;27353;50.906;7.248;2022-12-18T09:18:09;-1.00;99.90
41664;DHT22;27353;50.906;7.248;2022-12-18T09:20:36;-0.80;99.90
41664;DHT22;27353;50.906;7.248;2022-12-18T09:23:02;-0.80;99.90
41664;DHT22;27353;50.906;7.248;2022-12-18T09:25:29;-0.80;99.90
41664;DHT22;27353;50.906;7.248;2022-12-18T09:28:11;-0.90;99.90
41664;DHT22;27353;50.906;7.248;2022-12-18T09:30:39;-0.90;99.90
41664;DHT22;27353;50.906;7.248;2022-12-18T09:33:05;-0.90;99.90
41664;DHT22;27353;50.906;7.248;2022-12-18T09:35:30;-0.80;99.90
41664;DHT22;27353;50.906;7.248;2022-12-18T09:37:56;-0.90;99.90
41664;DHT22;27353;50.906;7.248;2022-12-18T09:40:24;-0.90;99.90
41664;DHT22;27353;50.906;7.248;2022-12-18T09:42:57;-0.60;99.90
41664;DHT22;27353;50.906;7.248;2022-12-18T09:45:24;-0.40;99.90
41664;DHT22;27353;50.906;7.248;2022-12-18T09:47:51;-0.20;99.90
41664;DHT22;27353;50.906;7.248;2022-12-18T09:50:28;0.00;99.90
41664;DHT22;27353;50.906;7.248;2022-12-18T09:52:57;0.20;99.90
41664;DHT22;27353;50.906;7.248;2022-12-18T09:55:34;0.20;99.90
41664;DHT22;27353;50.906;7.248;2022-12-18T09:58:17;0.50;99.90
41664;DHT22;27353;50.906;7.248;2022-12-18T10:00:44;0.70;99.90
41664;DHT22;27353;50.906;7.248;2022-12-18T10:03:14;0.80;99.90
41664;DHT22;27353;50.906;7.248;2022-12-18T10:06:05;1.00;99.90
41664;DHT22;27353;50.906;7.248;2022-12-18T10:20:13;1.20;99.90
41664;DHT22;27353;50.906;7.248;2022-12-18T10:26:07;1.40;99.90
41664;DHT22;27353;50.906;7.248;2022-12-18T10:28:39;1.70;99.90
41664;DHT22;27353;50.906;7.248;2022-12-18T10:31:06;2.00;99.90
41664;DHT22;27353;50.906;7.248;2022-12-18T10:33:33;2.10;99.90
41664;DHT22;27353;50.906;7.248;2022-12-18T10:35:59;2.20;99.90
41664;DHT22;27353;50.906;7.248;2022-12-18T10:38:27;2.60;99.90
41664;DHT22;27353;50.906;7.248;2022-12-18T10:41:00;3.30;99.90
41664;DHT22;27353;50.906;7.248;2022-12-18T10:43:34;3.80;99.90
41664;DHT22;27353;50.906;7.248;2022-12-18T10:48:28;3.90;99.90
41664;DHT22;27353;50.906;7.248;2022-12-18T10:50:55;4.10;99.90
41664;DHT22;27353;50.906;7.248;2022-12-18T10:53:24;3.90;99.90
41664;DHT22;27353;50.906;7.248;2022-12-18T10:55:53;3.80;99.90
41664;DHT22;27353;50.906;7.248;2022-12-18T10:58:29;3.10;99.90
41664;DHT22;27353;50.906;7.248;2022-12-18T11:01:07;2.90;99.90
41664;DHT22;27353;50.906;7.248;2022-12-18T11:03:42;3.00;99.90
41664;DHT22;27353;50.906;7.248;2022-12-18T11:08:34;2.60;99.90
41664;DHT22;27353;50.906;7.248;2022-12-18T11:11:00;2.70;99.90
41664;DHT22;27353;50.906;7.248;2022-12-18T11:13:29;2.80;99.90
41664;DHT22;27353;50.906;7.248;2022-12-18T11:15:55;3.10;99.90
41664;DHT22;27353;50.906;7.248;2022-12-18T11:18:31;2.80;99.90
41664;DHT22;27353;50.906;7.248;2022-12-18T11:21:09;2.60;99.90
41664;DHT22;27353;50.906;7.248;2022-12-18T11:23:36;2.50;99.90
41664;DHT22;27353;50.906;7.248;2022-12-18T11:26:04;2.70;99.90
41664;DHT22;27353;50.906;7.248;2022-12-18T11:28:37;2.50;99.90
41664;DHT22;27353;50.906;7.248;2022-12-18T11:31:11;2.40;99.90
41664;DHT22;27353;50.906;7.248;2022-12-18T11:33:40;2.00;99.90
41664;DHT22;27353;50.906;7.248;2022-12-18T11:36:08;1.90;99.90
41664;DHT22;27353;50.906;7.248;2022-12-18T11:38:39;1.90;99.90
41664;DHT22;27353;50.906;7.248;2022-12-18T11:44:35;1.60;99.90
41664;DHT22;27353;50.906;7.248;2022-12-18T11:49:56;1.20;99.90
41664;DHT22;27353;50.906;7.248;2022-12-18T11:52:28;1.00;99.90
41664;DHT22;27353;50.906;7.248;2022-12-18T11:55:00;1.00;99.90
41664;DHT22;27353;50.906;7.248;2022-12-18T11:57:50;1.10;99.90
41664;DHT22;27353;50.906;7.248;2022-12-18T12:00:22;0.70;99.90
41664;DHT22;27353;50.906;7.248;2022-12-18T12:05:49;0.40;99.90
41664;DHT22;27353;50.906;7.248;2022-12-18T12:27:36;-0.20;99.90
41664;DHT22;27353;50.906;7.248;2022-12-18T12:40:20;-0.60;99.90
41664;DHT22;27353;50.906;7.248;2022-12-18T12:42:52;-0.60;99.90
41664;DHT22;27353;50.906;7.248;2022-12-18T12:48:49;-0.70;99.90
41664;DHT22;27353;50.906;7.248;2022-12-18T12:51:30;-0.80;99.90
41664;DHT22;27353;50.906;7.248;2022-12-18T12:53:58;-0.90;99.90
41664;DHT22;27353;50.906;7.248;2022-12-18T12:56:48;-0.80;99.90
41664;DHT22;27353;50.906;7.248;2022-12-18T12:59:19;-0.90;99.90
41664;DHT22;27353;50.906;7.248;2022-12-18T13:02:05;-0.90;99.90
41664;DHT22;27353;50.906;7.248;2022-12-18T13:07:54;-0.90;99.90
41664;DHT22;27353;50.906;7.248;2022-12-18T13:10:31;-0.80;99.90
41664;DHT22;27353;50.906;7.248;2022-12-18T13:18:22;-0.80;99.90
41664;DHT22;27353;50.906;7.248;2022-12-18T13:21:01;-0.80;99.90
41664;DHT22;27353;50.906;7.248;2022-12-18T13:23:31;-0.80;99.90
41664;DHT22;27353;50.906;7.248;2022-12-18T13:34:27;-0.60;99.90
41664;DHT22;27353;50.906;7.248;2022-12-18T13:36:54;-0.60;99.90
41664;DHT22;27353;50.906;7.248;2022-12-18T13:44:27;-0.70;99.90
41664;DHT22;27353;50.906;7.248;2022-12-18T13:46:55;-0.70;99.90
41664;DHT22;27353;50.906;7.248;2022-12-18T13:49:31;-0.70;99.90
41664;DHT22;27353;50.906;7.248;2022-12-18T13:52:02;-0.70;99.90
41664;DHT22;27353;50.906;7.248;2022-12-18T13:54:36;-0.70;99.90
41664;DHT22;27353;50.906;7.248;2022-12-18T13:57:14;-0.80;99.90
41664;DHT22;27353;50.906;7.248;2022-12-18T13:59:50;-0.70;99.90
41664;DHT22;27353;50.906;7.248;2022-12-18T14:02:21;-0.70;99.90
41664;DHT22;27353;50.906;7.248;2022-12-18T14:04:47;-0.80;99.90
41664;DHT22;27353;50.906;7.248;2022-12-18T14:07:15;-0.90;99.90
41664;DHT22;27353;50.906;7.248;2022-12-18T14:09:59;-0.90;99.90
41664;DHT22;27353;50.906;7.248;2022-12-18T14:12:29;-0.90;99.90
41664;DHT22;27353;50.906;7.248;2022-12-18T14:17:54;-0.90;99.90
41664;DHT22;27353;50.906;7.248;2022-12-18T14:20:20;-0.90;99.90
41664;DHT22;27353;50.906;7.248;2022-12-18T14:22:48;-0.90;99.90
41664;DHT22;27353;50.906;7.248;2022-12-18T14:27:48;-1.00;99.90
41664;DHT22;27353;50.906;7.248;2022-12-18T14:33:15;-1.00;99.90
41664;DHT22;27353;50.906;7.248;2022-12-18T14:36:00;-1.10;99.90
41664;DHT22;27353;50.906;7.248;2022-12-18T14:38:36;-1.10;99.90
41664;DHT22;27353;50.906;7.248;2022-12-18T14:41:02;-1.20;99.90
41664;DHT22;27353;50.906;7.248;2022-12-18T14:43:32;-1.30;99.90
41664;DHT22;27353;50.906;7.248;2022-12-18T14:45:58;-1.30;99.90
41664;DHT22;27353;50.906;7.248;2022-12-18T14:48:39;-1.30;99.90
41664;DHT22;27353;50.906;7.248;2022-12-18T14:51:19;-1.30;99.90
41664;DHT22;27353;50.906;7.248;2022-12-18T14:54:05;-1.30;99.90
41664;DHT22;27353;50.906;7.248;2022-12-18T14:56:45;-1.30;99.90
41664;DHT22;27353;50.906;7.248;2022-12-18T14:59:21;-1.20;99.90
41664;DHT22;27353;50.906;7.248;2022-12-18T15:07:07;-1.40;99.90
41664;DHT22;27353;50.906;7.248;2022-12-18T15:09:34;-1.40;99.90
41664;DHT22;27353;50.906;7.248;2022-12-18T15:12:01;-1.40;99.90
41664;DHT22;27353;50.906;7.248;2022-12-18T15:16:56;-1.50;99.90
41664;DHT22;27353;50.906;7.248;2022-12-18T15:19:33;-1.50;99.90
41664;DHT22;27353;50.906;7.248;2022-12-18T15:21:59;-1.50;99.90
41664;DHT22;27353;50.906;7.248;2022-12-18T15:24:30;-1.50;99.90
41664;DHT22;27353;50.906;7.248;2022-12-18T15:26:56;-1.60;99.90
41664;DHT22;27353;50.906;7.248;2022-12-18T15:29:22;-1.60;99.90
41664;DHT22;27353;50.906;7.248;2022-12-18T15:32:10;-1.60;99.90
41664;DHT22;27353;50.906;7.248;2022-12-18T15:34:41;-1.60;99.90
41664;DHT22;27353;50.906;7.248;2022-12-18T15:37:07;-1.60;99.90
41664;DHT22;27353;50.906;7.248;2022-12-18T15:39:33;-1.60;99.90
41664;DHT22;27353;50.906;7.248;2022-12-18T15:42:01;-1.50;99.90
41664;DHT22;27353;50.906;7.248;2022-12-18T15:44:45;-1.50;99.90
41664;DHT22;27353;50.906;7.248;2022-12-18T15:47:12;-1.50;99.90
41664;DHT22;27353;50.906;7.248;2022-12-18T15:49:38;-1.50;99.90
41664;DHT22;27353;50.906;7.248;2022-12-18T15:52:05;-1.50;99.90
41664;DHT22;27353;50.906;7.248;2022-12-18T15:54:31;-1.50;99.90
41664;DHT22;27353;50.906;7.248;2022-12-18T15:57:15;-1.60;99.90
41664;DHT22;27353;50.906;7.248;2022-12-18T15:59:55;-1.60;99.90
41664;DHT22;27353;50.906;7.248;2022-12-18T16:02:23;-1.60;99.90
41664;DHT22;27353;50.906;7.248;2022-12-18T16:04:51;-1.60;99.90
41664;DHT22;27353;50.906;7.248;2022-12-18T16:07:17;-1.60;99.90
41664;DHT22;27353;50.906;7.248;2022-12-18T16:09:43;-1.60;99.90
41664;DHT22;27353;50.906;7.248;2022-12-18T16:12:20;-1.60;99.90
41664;DHT22;27353;50.906;7.248;2022-12-18T16:14:47;-1.60;99.90
41664;DHT22;27353;50.906;7.248;2022-12-18T16:17:13;-1.60;99.90
41664;DHT22;27353;50.906;7.248;2022-12-18T16:19:42;-1.60;99.90
41664;DHT22;27353;50.906;7.248;2022-12-18T16:22:24;-1.70;99.90
41664;DHT22;27353;50.906;7.248;2022-12-18T16:24:51;-1.60;99.90
41664;DHT22;27353;50.906;7.248;2022-12-18T16:27:17;-1.70;99.90
41664;DHT22;27353;50.906;7.248;2022-12-18T16:29:43;-1.70;99.90
41664;DHT22;27353;50.906;7.248;2022-12-18T16:32:15;-1.70;99.90
41664;DHT22;27353;50.906;7.248;2022-12-18T16:34:42;-1.70;99.90
41664;DHT22;27353;50.906;7.248;2022-12-18T16:37:10;-1.80;99.90
41664;DHT22;27353;50.906;7.248;2022-12-18T16:39:37;-1.80;99.90
41664;DHT22;27353;50.906;7.248;2022-12-18T16:42:05;-1.90;99.90
41664;DHT22;27353;50.906;7.248;2022-12-18T16:44:31;-1.90;99.90
41664;DHT22;27353;50.906;7.248;2022-12-18T16:46:56;-1.80;99.90
41664;DHT22;27353;50.906;7.248;2022-12-18T16:49:27;-1.90;99.90
41664;DHT22;27353;50.906;7.248;2022-12-18T16:51:53;-1.80;99.90
41664;DHT22;27353;50.906;7.248;2022-12-18T16:54:19;-1.80;99.90
41664;DHT22;27353;50.906;7.248;2022-12-18T16:56:44;-1.80;99.90
41664;DHT22;27353;50.906;7.248;2022-12-18T16:59:12;-1.80;99.90
41664;DHT22;27353;50.906;7.248;2022-12-18T17:01:38;-1.80;99.90
41664;DHT22;27353;50.906;7.248;2022-12-18T17:04:05;-1.80;99.90
41664;DHT22;27353;50.906;7.248;2022-12-18T17:06:33;-1.90;99.90
41664;DHT22;27353;50.906;7.248;2022-12-18T17:09:04;-1.90;99.90
41664;DHT22;27353;50.906;7.248;2022-12-18T17:11:32;-1.90;99.90
41664;DHT22;27353;50.906;7.248;2022-12-18T17:13:58;-1.90;99.90
41664;DHT22;27353;50.906;7.248;2022-12-18T17:16:24;-1.90;99.90
41664;DHT22;27353;50.906;7.248;2022-12-18T17:18:51;-1.90;99.90
41664;DHT22;27353;50.906;7.248;2022-12-18T17:21:17;-1.90;99.90
41664;DHT22;27353;50.906;7.248;2022-12-18T17:23:43;-1.90;99.90
41664;DHT22;27353;50.906;7.248;2022-12-18T17:26:10;-1.90;99.90
41664;DHT22;27353;50.906;7.248;2022-12-18T17:28:37;-1.90;99.90
41664;DHT22;27353;50.906;7.248;2022-12-18T17:31:15;-1.90;99.90
41664;DHT22;27353;50.906;7.248;2022-12-18T17:33:41;-2.00;99.90
41664;DHT22;27353;50.906;7.248;2022-12-18T17:36:08;-2.00;99.90
41664;DHT22;27353;50.906;7.248;2022-12-18T17:38:34;-2.00;99.90
41664;DHT22;27353;50.906;7.248;2022-12-18T17:41:01;-2.00;99.90
41664;DHT22;27353;50.906;7.248;2022-12-18T17:43:27;-2.00;99.90
41664;DHT22;27353;50.906;7.248;2022-12-18T17:45:52;-1.90;99.90
41664;DHT22;27353;50.906;7.248;2022-12-18T17:48:18;-2.00;99.90
41664;DHT22;27353;50.906;7.248;2022-12-18T17:50:44;-2.00;99.90